Time;durP1;ratioP1;P1;durP2;ratioP2;P2;SDS_P1;SDS_P2;PMS_P1;PMS_P2;Temp;Humidity;BMP_temperature;BMP_pressure;BME280_temperature;BME280_humidity;BME280_pressure;Samples;Min_cycle;Max_cycle;Signal;HPM_P1;HPM_P2
2022/08/16 00:02:04;;;;;;;12.07;9.67;;;;;;;-141.28;100.00;46167.75;5088983;28;20568;-75
2022/08/16 00:04:33;;;;;;;13.20;10.20;;;;;;;-141.28;100.00;46132.47;5090999;28;20192;-73
2022/08/16 00:07:01;;;;;;;12.83;10.33;;;;;;;-141.28;100.00;46110.91;5091250;28;20199;-76
2022/08/16 00:09:28;;;;;;;13.80;10.33;;;;;;;-141.28;100.00;46085.41;5091236;28;20195;-75
2022/08/16 00:11:56;;;;;;;16.60;10.60;;;;;;;-141.28;100.00;46034.44;5085426;28;20223;-76
2022/08/16 00:14:28;;;;;;;15.33;12.10;;;;;;;-141.28;100.00;46005.03;5075553;28;20295;-74
2022/08/16 00:16:55;;;;;;;17.07;12.63;;;;;;;-141.28;100.00;45975.66;5071246;28;20547;-74
2022/08/16 00:19:25;;;;;;;15.43;12.53;;;;;;;-141.28;100.00;45881.56;5067956;28;20655;-74
2022/08/16 00:21:54;;;;;;;17.00;13.10;;;;;;;-141.28;100.00;45838.44;5061946;28;20196;-73
2022/08/16 00:24:22;;;;;;;18.20;13.30;;;;;;;-141.28;100.00;45744.34;5071300;28;20199;-75
2022/08/16 00:26:49;;;;;;;26.00;14.73;;;;;;;-141.28;100.00;45697.28;5071683;28;20204;-75
2022/08/16 00:29:17;;;;;;;17.77;14.67;;;;;;;-141.28;100.00;45669.84;5071877;28;20208;-73
2022/08/16 00:31:46;;;;;;;19.63;14.83;;;;;;;-141.28;100.00;45630.66;5071334;28;20250;-76
2022/08/16 00:34:14;;;;;;;17.70;12.67;;;;;;;-141.28;100.00;45611.06;5084397;28;20541;-74
2022/08/16 00:36:41;;;;;;;21.07;14.03;;;;;;;-141.28;100.00;45589.50;5070944;28;20655;-74
2022/08/16 00:39:10;;;;;;;22.23;15.40;;;;;;;-141.28;100.00;45554.22;5071272;28;20192;-73
2022/08/16 00:41:36;;;;;;;18.67;14.00;;;;;;;-141.28;100.00;45491.50;5071021;28;20219;-73
2022/08/16 00:44:09;;;;;;;17.47;14.40;;;;;;;-141.28;100.00;45450.34;5072682;28;20200;-75
2022/08/16 00:46:40;;;;;;;19.43;13.33;;;;;;;-141.28;100.00;45415.06;5074527;28;20368;-75
2022/08/16 00:49:11;;;;;;;17.93;13.63;;;;;;;-141.28;100.00;45393.50;5086792;28;20214;-74
2022/08/16 00:51:38;;;;;;;32.10;14.17;;;;;;;-141.28;100.00;45401.34;5076341;28;20571;-74
2022/08/16 00:54:06;;;;;;;17.57;14.07;;;;;;;-141.28;100.00;45383.69;5074832;28;20248;-75
2022/08/16 00:56:38;;;;;;;16.27;12.43;;;;;;;-141.28;100.00;45364.09;5074871;28;20249;-74
2022/08/16 00:59:08;;;;;;;17.97;12.83;;;;;;;-141.28;100.00;45360.19;5087766;28;20654;-74
2022/08/16 01:01:37;;;;;;;16.83;10.93;;;;;;;-141.28;100.00;45373.91;5081818;28;20215;-75
2022/08/16 01:04:06;;;;;;;17.47;10.60;;;;;;;-141.28;100.00;45411.13;5094447;28;20252;-77
2022/08/16 01:06:33;;;;;;;15.00;11.03;;;;;;;-141.28;100.00;45428.78;5094145;28;20200;-73
2022/08/16 01:09:05;;;;;;;13.90;11.17;;;;;;;-141.28;100.00;45444.47;5094108;28;20680;-75
2022/08/16 01:11:36;;;;;;;15.97;11.40;;;;;;;-141.28;100.00;45458.19;5091611;28;20207;-74
2022/08/16 01:14:09;;;;;;;12.83;11.17;;;;;;;-141.28;100.00;45493.47;5084218;28;20208;-74
2022/08/16 01:16:38;;;;;;;14.90;11.37;;;;;;;-141.28;100.00;45487.56;5084607;28;20246;-75
2022/08/16 01:19:14;;;;;;;13.93;10.97;;;;;;;-141.28;100.00;45505.22;5078539;28;20198;-75
2022/08/16 01:21:50;;;;;;;13.13;11.50;;;;;;;-141.28;100.00;45503.25;5094640;28;20226;-74
2022/08/16 01:24:24;;;;;;;14.90;10.83;;;;;;;-141.28;100.00;45520.91;5080410;28;20645;-75
2022/08/16 01:26:54;;;;;;;15.73;11.30;;;;;;;-141.28;100.00;45546.38;5074983;28;20327;-73
2022/08/16 01:29:32;;;;;;;14.10;10.70;;;;;;;-141.28;100.00;45556.16;5093560;28;20195;-76
2022/08/16 01:31:59;;;;;;;14.77;10.60;;;;;;;-141.28;100.00;45579.69;5080787;28;20273;-75
2022/08/16 01:34:26;;;;;;;14.73;11.20;;;;;;;-141.28;100.00;45583.63;5074333;28;20196;-73
2022/08/16 01:37:02;;;;;;;15.97;10.60;;;;;;;-141.28;100.00;45611.06;5075307;28;20200;-74
2022/08/16 01:39:31;;;;;;;12.67;10.43;;;;;;;-141.28;100.00;45642.41;5084561;28;20199;-73
2022/08/16 01:41:59;;;;;;;13.10;10.10;;;;;;;-141.28;100.00;45646.34;5090277;28;20704;-75
2022/08/16 01:44:27;;;;;;;12.47;10.27;;;;;;;-141.28;100.00;45654.19;5094816;28;20650;-75
2022/08/16 01:46:56;;;;;;;16.07;10.93;;;;;;;-141.28;100.00;45648.28;5094495;28;20192;-74
2022/08/16 01:49:27;;;;;;;15.53;11.77;;;;;;;-141.28;100.00;45650.25;5093357;28;20666;-75
2022/08/16 01:51:57;;;;;;;15.97;11.27;;;;;;;-141.28;100.00;45642.41;5093109;28;20726;-73
2022/08/16 01:54:24;;;;;;;15.03;10.97;;;;;;;-141.28;100.00;45626.72;5094363;28;20662;-72
2022/08/16 01:56:53;;;;;;;13.77;10.83;;;;;;;-141.28;100.00;45622.81;5073730;28;20192;-74
2022/08/16 01:59:21;;;;;;;17.53;11.20;;;;;;;-141.28;100.00;45630.66;5073452;28;20199;-74
2022/08/16 02:01:50;;;;;;;16.30;11.67;;;;;;;-141.28;100.00;45620.84;5073380;28;20216;-74
2022/08/16 02:04:17;;;;;;;18.10;11.60;;;;;;;-141.28;100.00;45614.97;5060038;28;20264;-75
2022/08/16 02:06:45;;;;;;;16.57;11.43;;;;;;;-141.28;100.00;45603.22;5094791;28;20203;-74
2022/08/16 02:09:13;;;;;;;16.73;12.00;;;;;;;-141.28;100.00;45587.53;5091854;28;20267;-76
2022/08/16 02:11:45;;;;;;;16.07;11.23;;;;;;;-141.28;100.00;45569.91;5079132;28;20287;-75
2022/08/16 02:14:14;;;;;;;15.17;11.37;;;;;;;-141.28;100.00;45579.69;5080622;28;20212;-74
2022/08/16 02:16:43;;;;;;;16.10;11.93;;;;;;;-141.28;100.00;45560.09;5074307;28;20192;-74
2022/08/16 02:19:11;;;;;;;14.50;10.87;;;;;;;-141.28;100.00;45548.34;5073724;28;20740;-74
2022/08/16 02:21:38;;;;;;;18.27;11.13;;;;;;;-141.28;100.00;45567.94;5073740;28;20231;-74
2022/08/16 02:24:06;;;;;;;14.40;11.80;;;;;;;-141.28;100.00;45595.38;5073534;28;20211;-74
2022/08/16 02:26:33;;;;;;;17.87;12.63;;;;;;;-141.28;100.00;45591.44;5074996;28;20666;-76
2022/08/16 02:29:00;;;;;;;13.67;12.23;;;;;;;-141.28;100.00;45544.41;5091320;28;20203;-76
2022/08/16 02:31:29;;;;;;;15.00;12.10;;;;;;;-141.28;100.00;45509.13;5081032;28;20219;-74
2022/08/16 02:33:56;;;;;;;16.90;12.40;;;;;;;-141.28;100.00;45489.53;5076798;28;20192;-76
2022/08/16 02:36:23;;;;;;;18.60;13.67;;;;;;;-141.28;100.00;45450.34;5072907;28;20580;-74
2022/08/16 02:38:51;;;;;;;17.17;12.53;;;;;;;-141.28;100.00;45415.06;5072194;28;20203;-74
2022/08/16 02:41:19;;;;;;;17.83;12.83;;;;;;;-141.28;100.00;45395.47;5081742;28;20219;-74
2022/08/16 02:43:46;;;;;;;15.63;13.03;;;;;;;-141.28;100.00;45371.94;5075794;28;20219;-74
2022/08/16 02:46:16;;;;;;;20.63;12.73;;;;;;;-141.28;100.00;45366.06;5082480;28;20226;-74
2022/08/16 02:48:45;;;;;;;14.87;12.03;;;;;;;-141.28;100.00;45360.19;5085304;28;20223;-76
2022/08/16 02:51:12;;;;;;;16.17;12.50;;;;;;;-141.28;100.00;45344.50;5081603;28;20200;-73
2022/08/16 02:53:42;;;;;;;16.57;11.90;;;;;;;-141.28;100.00;45344.50;5085411;28;20189;-74
2022/08/16 02:56:09;;;;;;;14.40;12.00;;;;;;;-141.28;100.00;45348.41;5084001;28;20206;-74
2022/08/16 02:58:37;;;;;;;17.40;13.00;;;;;;;-141.28;100.00;45346.47;5078036;28;20287;-75
2022/08/16 03:01:05;;;;;;;17.37;12.77;;;;;;;-141.28;100.00;45336.66;5080075;28;20224;-76
2022/08/16 03:03:35;;;;;;;14.63;12.70;;;;;;;-141.28;100.00;45322.94;5072033;28;20230;-76
2022/08/16 03:06:04;;;;;;;19.43;13.60;;;;;;;-141.28;100.00;45313.13;5085137;28;20196;-76
2022/08/16 03:08:33;;;;;;;16.20;12.67;;;;;;;-141.28;100.00;45313.13;5082791;28;20203;-77
2022/08/16 03:11:00;;;;;;;16.53;13.30;;;;;;;-141.28;100.00;45297.47;5072790;28;20219;-76
2022/08/16 03:13:28;;;;;;;17.33;12.77;;;;;;;-141.28;100.00;45320.97;5092518;28;20566;-75
2022/08/16 03:15:55;;;;;;;16.77;13.10;;;;;;;-141.28;100.00;45281.78;5087059;28;20219;-75
2022/08/16 03:18:22;;;;;;;17.57;13.87;;;;;;;-141.28;100.00;45289.63;5075460;28;20225;-76
2022/08/16 03:20:50;;;;;;;16.73;13.53;;;;;;;-141.28;100.00;45285.69;5072024;28;20223;-76
2022/08/16 03:23:19;;;;;;;18.30;13.03;;;;;;;-141.28;100.00;45289.63;5074753;28;20241;-75
2022/08/16 03:25:46;;;;;;;16.77;13.53;;;;;;;-141.28;100.00;45289.63;5092052;28;20253;-75
2022/08/16 03:28:13;;;;;;;17.50;13.93;;;;;;;-141.28;100.00;45285.69;5086725;28;20199;-75
2022/08/16 03:30:40;;;;;;;17.17;13.10;;;;;;;-141.28;100.00;45285.69;5082741;28;20219;-76
2022/08/16 03:33:08;;;;;;;15.97;13.33;;;;;;;-141.28;100.00;45281.78;5090581;28;20200;-75
2022/08/16 03:35:40;;;;;;;15.83;13.53;;;;;;;-141.28;100.00;45293.53;5091524;28;20210;-75
2022/08/16 03:38:09;;;;;;;20.47;13.40;;;;;;;-141.28;100.00;45301.38;5084316;28;20204;-74
2022/08/16 03:40:39;;;;;;;18.37;13.63;;;;;;;-141.28;100.00;45305.31;5084931;28;20207;-73
2022/08/16 03:43:09;;;;;;;17.87;13.73;;;;;;;-141.28;100.00;45313.13;5065679;28;20198;-74
2022/08/16 03:45:36;;;;;;;18.57;14.17;;;;;;;-141.28;100.00;45313.13;5091345;28;20199;-74
2022/08/16 03:48:07;;;;;;;16.77;13.03;;;;;;;-141.28;100.00;45322.94;5091680;28;20306;-76
2022/08/16 03:50:34;;;;;;;21.97;13.17;;;;;;;-141.28;100.00;45305.31;5089414;28;20206;-75
2022/08/16 03:53:01;;;;;;;14.93;12.80;;;;;;;-141.28;100.00;45334.69;5071726;28;20651;-73
2022/08/16 03:55:33;;;;;;;16.77;13.63;;;;;;;-141.28;100.00;45381.75;5073680;28;20250;-74
2022/08/16 03:58:01;;;;;;;18.93;14.37;;;;;;;-141.28;100.00;45332.75;5091204;28;20195;-74
2022/08/16 04:00:32;;;;;;;17.43;14.33;;;;;;;-141.28;100.00;45311.19;5091382;28;20188;-73
2022/08/16 04:03:05;;;;;;;17.93;15.43;;;;;;;-141.28;100.00;45285.69;5080041;28;20203;-74
2022/08/16 04:05:34;;;;;;;20.03;16.30;;;;;;;-141.28;100.00;45273.94;5076157;28;20192;-76
2022/08/16 04:08:01;;;;;;;20.33;15.47;;;;;;;-141.28;100.00;45295.50;5091342;28;20228;-75
2022/08/16 04:10:29;;;;;;;17.67;15.37;;;;;;;-141.28;100.00;45291.59;5077366;28;20192;-74
2022/08/16 04:12:57;;;;;;;20.87;15.37;;;;;;;-141.28;100.00;45293.53;5085757;28;20254;-74
2022/08/16 04:15:29;;;;;;;21.57;15.20;;;;;;;-141.28;100.00;45293.53;5071279;28;20207;-75
2022/08/16 04:17:58;;;;;;;18.27;14.90;;;;;;;-141.28;100.00;45313.13;5084258;28;20204;-74
2022/08/16 04:20:25;;;;;;;18.93;15.57;;;;;;;-141.28;100.00;45305.31;5084970;28;20191;-74
2022/08/16 04:22:54;;;;;;;24.27;15.63;;;;;;;-141.28;100.00;45299.41;5086766;28;20223;-76
2022/08/16 04:25:22;;;;;;;18.67;14.93;;;;;;;-141.28;100.00;45326.84;5096585;28;20282;-74
2022/08/16 04:27:50;;;;;;;20.07;15.57;;;;;;;-141.28;100.00;45340.59;5089454;28;20192;-75
2022/08/16 04:30:21;;;;;;;17.83;15.37;;;;;;;-141.28;100.00;45383.69;5088712;28;20222;-74
2022/08/16 04:32:49;;;;;;;18.63;15.77;;;;;;;-141.28;100.00;45418.97;5070564;28;20283;-75
2022/08/16 04:35:18;;;;;;;19.53;15.10;;;;;;;-141.28;100.00;45426.81;5094240;28;20195;-74
2022/08/16 04:37:46;;;;;;;19.07;16.03;;;;;;;-141.28;100.00;45438.56;5094949;28;20198;-75
2022/08/16 04:40:14;;;;;;;26.87;17.20;;;;;;;-141.28;100.00;45438.56;5093088;28;20196;-75
2022/08/16 04:42:41;;;;;;;20.47;16.57;;;;;;;-141.28;100.00;45436.63;5094335;28;20229;-74
2022/08/16 04:45:12;;;;;;;21.83;17.00;;;;;;;-141.28;100.00;45454.25;5093027;28;20208;-74
2022/08/16 04:47:40;;;;;;;21.83;15.93;;;;;;;-141.28;100.00;45462.09;5094749;28;20751;-75
2022/08/16 04:50:12;;;;;;;20.87;16.00;;;;;;;-141.28;100.00;45477.78;5093686;28;20207;-75
2022/08/16 04:52:41;;;;;;;22.17;16.30;;;;;;;-141.28;100.00;45509.13;5084944;28;20358;-73
2022/08/16 04:55:10;;;;;;;21.53;16.10;;;;;;;-141.28;100.00;45489.53;5084225;28;20196;-74
2022/08/16 04:57:38;;;;;;;29.60;16.67;;;;;;;-141.28;100.00;45497.38;5085823;28;20206;-75
2022/08/16 05:00:11;;;;;;;22.87;16.43;;;;;;;-141.28;100.00;45505.22;5094669;28;20580;-74
2022/08/16 05:02:39;;;;;;;22.67;16.53;;;;;;;-141.28;100.00;45501.28;5094928;28;20640;-74
2022/08/16 05:05:10;;;;;;;23.10;17.47;;;;;;;-141.28;100.00;45497.38;5094110;28;20239;-75
2022/08/16 05:07:38;;;;;;;23.67;16.63;;;;;;;-141.28;100.00;45518.94;5094333;28;20196;-76
2022/08/16 05:10:07;;;;;;;19.43;15.93;;;;;;;-141.28;100.00;45471.91;5090700;28;20204;-76
2022/08/16 05:12:36;;;;;;;19.67;15.20;;;;;;;-141.28;100.00;45477.78;5086373;28;20192;-74
2022/08/16 05:15:07;;;;;;;22.83;15.70;;;;;;;-141.28;100.00;45471.91;5094504;28;20195;-76
2022/08/16 05:17:34;;;;;;;20.13;15.23;;;;;;;-141.28;100.00;45495.41;5094090;28;20195;-76
2022/08/16 05:20:02;;;;;;;21.33;15.37;;;;;;;-141.28;100.00;45501.28;5067648;28;20208;-74
2022/08/16 05:22:30;;;;;;;20.03;16.03;;;;;;;-141.28;100.00;45552.25;5091429;28;20219;-75
2022/08/16 05:24:57;;;;;;;20.97;15.30;;;;;;;-141.28;100.00;45564.00;5098073;28;20203;-74
2022/08/16 05:27:26;;;;;;;21.47;15.77;;;;;;;-141.28;100.00;45589.50;5093907;28;20744;-75
2022/08/16 05:29:53;;;;;;;23.97;15.87;;;;;;;-141.28;100.00;45613.00;5094186;28;20199;-75
2022/08/16 05:32:24;;;;;;;23.60;15.23;;;;;;;-141.28;100.00;45677.69;5073562;28;20218;-74
2022/08/16 05:34:51;;;;;;;21.70;16.27;;;;;;;-141.28;100.00;45752.19;5093228;28;20191;-75
2022/08/16 05:37:22;;;;;;;21.87;15.27;;;;;;;-141.28;100.00;45760.03;5075539;28;20196;-76
2022/08/16 05:39:51;;;;;;;22.07;15.63;;;;;;;-141.28;100.00;45763.94;5074101;28;20287;-76
2022/08/16 05:42:19;;;;;;;22.80;15.17;;;;;;;-141.28;100.00;45765.91;5074230;28;20262;-76
2022/08/16 05:44:46;;;;;;;23.40;16.60;;;;;;;-141.28;100.00;45785.50;5073669;28;20192;-75
2022/08/16 05:47:14;;;;;;;24.23;15.50;;;;;;;-141.28;100.00;45799.22;5085938;28;20241;-76
2022/08/16 05:49:45;;;;;;;22.60;15.20;;;;;;;-141.28;100.00;45842.34;5080003;28;20203;-75
2022/08/16 05:52:12;;;;;;;21.80;15.67;;;;;;;-141.28;100.00;45881.56;5080018;28;20215;-73
2022/08/16 05:54:43;;;;;;;25.67;14.83;;;;;;;-141.28;100.00;45979.56;5075902;28;20264;-74
2022/08/16 05:57:12;;;;;;;22.07;14.30;;;;;;;-141.28;100.00;45901.16;5093022;28;20200;-75
2022/08/16 05:59:39;;;;;;;20.57;14.67;;;;;;;-141.28;100.00;45999.16;5093435;28;20199;-76
2022/08/16 06:02:07;;;;;;;21.20;13.43;;;;;;;-141.28;100.00;46050.13;5093255;28;20598;-77
2022/08/16 06:04:34;;;;;;;16.93;13.53;;;;;;;-141.28;100.00;46042.28;5093472;28;20654;-75
2022/08/16 06:07:04;;;;;;;16.27;13.17;;;;;;;-141.28;100.00;46038.38;5090242;28;21233;-75
2022/08/16 06:09:32;;;;;;;16.40;12.80;;;;;;;-141.28;100.00;46056.00;5083632;28;20262;-74
2022/08/16 06:12:00;;;;;;;20.60;13.50;;;;;;;-141.28;100.00;46042.28;5091488;28;20203;-77
2022/08/16 06:14:30;;;;;;;16.53;12.53;;;;;;;-141.28;100.00;46069.75;5077095;28;20681;-76
2022/08/16 06:16:59;;;;;;;16.53;12.27;;;;;;;-141.28;100.00;46093.25;5084019;28;20594;-75
2022/08/16 06:19:26;;;;;;;22.03;13.03;;;;;;;-141.28;100.00;46101.09;5075299;28;20667;-74
2022/08/16 06:21:53;;;;;;;15.13;12.20;;;;;;;-141.28;100.00;46122.66;5073533;28;20251;-74
2022/08/16 06:24:20;;;;;;;17.23;12.77;;;;;;;-141.28;100.00;46167.75;5092526;28;20661;-74
2022/08/16 06:26:47;;;;;;;17.60;13.00;;;;;;;-141.28;100.00;46222.63;5091568;28;20218;-75
2022/08/16 06:29:14;;;;;;;18.30;12.47;;;;;;;-141.28;100.00;46238.31;5072930;28;20546;-75
2022/08/16 06:31:43;;;;;;;15.73;12.70;;;;;;;-141.28;100.00;46254.00;5073473;28;20216;-75
2022/08/16 06:34:13;;;;;;;21.93;11.67;;;;;;;-141.28;100.00;46332.44;5074325;28;20211;-76
2022/08/16 06:36:41;;;;;;;19.53;13.37;;;;;;;-141.28;100.00;46312.81;5054892;28;20197;-75
2022/08/16 06:39:08;;;;;;;23.20;13.20;;;;;;;-141.28;100.00;46287.34;5072766;28;20210;-74
2022/08/16 06:41:35;;;;;;;17.93;12.43;;;;;;;-141.28;100.00;46371.63;5090649;28;20189;-74
2022/08/16 06:44:03;;;;;;;22.20;12.80;;;;;;;-141.28;100.00;46434.38;5080771;28;20206;-73
2022/08/16 06:46:34;;;;;;;20.63;12.73;;;;;;;-141.28;100.00;46473.59;5077356;28;20658;-75
2022/08/16 06:49:03;;;;;;;14.53;12.23;;;;;;;-141.28;100.00;46448.09;5092175;28;20750;-75
2022/08/16 06:51:30;;;;;;;19.17;13.00;;;;;;;-141.28;100.00;46438.28;5073000;28;20619;-76
2022/08/16 06:54:00;;;;;;;18.10;12.50;;;;;;;-141.28;100.00;46459.84;5097000;28;20213;-74
2022/08/16 06:56:27;;;;;;;20.37;12.03;;;;;;;-141.28;100.00;46559.84;5084425;28;20204;-77
2022/08/16 06:58:55;;;;;;;20.77;11.97;;;;;;;-141.28;100.00;46630.44;5080974;28;20204;-75
2022/08/16 07:01:22;;;;;;;19.80;11.83;;;;;;;-141.28;100.00;46634.34;5091181;28;20195;-76
2022/08/16 07:03:51;;;;;;;16.57;12.30;;;;;;;-141.28;100.00;46695.13;5092353;28;20234;-75
2022/08/16 07:06:23;;;;;;;15.20;11.80;;;;;;;-141.28;100.00;46755.91;5085404;28;20199;-76
2022/08/16 07:08:50;;;;;;;18.03;11.77;;;;;;;-141.28;100.00;46767.69;5086123;28;20208;-73
2022/08/16 07:11:19;;;;;;;16.33;11.80;;;;;;;-141.28;100.00;46771.59;5073780;28;20576;-76
2022/08/16 07:13:47;;;;;;;17.47;11.70;;;;;;;-141.28;100.00;46724.53;5081810;28;20193;-74
2022/08/16 07:16:16;;;;;;;16.80;12.17;;;;;;;-141.28;100.00;46704.94;5072055;28;20203;-74
2022/08/16 07:18:43;;;;;;;17.47;11.83;;;;;;;-141.28;100.00;46671.59;5072255;28;20257;-75
2022/08/16 07:21:11;;;;;;;17.90;12.27;;;;;;;-141.28;100.00;46669.66;5091627;28;20187;-76
2022/08/16 07:23:42;;;;;;;14.47;11.50;;;;;;;-141.28;100.00;46653.97;5092159;28;20720;-74
2022/08/16 07:26:12;;;;;;;18.83;12.63;;;;;;;-141.28;100.00;46589.25;5092530;28;20199;-74
2022/08/16 07:28:40;;;;;;;15.80;11.43;;;;;;;-141.28;100.00;46587.28;5082035;28;20196;-74
2022/08/16 07:31:07;;;;;;;16.40;12.57;;;;;;;-141.28;100.00;46618.66;5071578;28;20216;-76
2022/08/16 07:33:38;;;;;;;13.73;11.70;;;;;;;-141.28;100.00;46579.44;5072326;28;20204;-74
2022/08/16 07:36:06;;;;;;;13.30;11.30;;;;;;;-141.28;100.00;46518.69;5085244;28;20614;-75
2022/08/16 07:38:35;;;;;;;15.33;11.03;;;;;;;-141.28;100.00;46481.44;5072496;28;20200;-75
2022/08/16 07:41:06;;;;;;;19.07;11.27;;;;;;;-141.28;100.00;46446.13;5071984;28;20203;-75
2022/08/16 07:43:33;;;;;;;13.60;10.60;;;;;;;-141.28;100.00;46381.44;5071562;28;20557;-74
2022/08/16 07:46:01;;;;;;;13.37;11.47;;;;;;;-141.28;100.00;46336.34;5071315;28;20196;-75
2022/08/16 07:48:28;;;;;;;13.87;10.87;;;;;;;-141.28;100.00;46342.22;5071478;28;20228;-75
2022/08/16 07:50:55;;;;;;;14.87;9.63;;;;;;;-141.28;100.00;46308.91;5080564;28;20215;-75
2022/08/16 07:53:23;;;;;;;13.80;11.17;;;;;;;-141.28;100.00;46301.06;5075751;28;20192;-74
2022/08/16 07:55:52;;;;;;;15.20;11.63;;;;;;;-141.28;100.00;46287.34;5071252;28;20287;-76
2022/08/16 07:58:22;;;;;;;15.03;11.83;;;;;;;-141.28;100.00;46318.69;5075587;28;20199;-75
2022/08/16 08:00:49;;;;;;;13.80;10.97;;;;;;;-141.28;100.00;46326.53;5080260;28;20208;-74
2022/08/16 08:03:18;;;;;;;15.30;11.23;;;;;;;-141.28;100.00;46285.38;5084170;28;20220;-74
2022/08/16 08:05:45;;;;;;;13.77;10.77;;;;;;;-141.28;100.00;46254.00;5082862;28;20212;-76
2022/08/16 08:08:12;;;;;;;15.23;9.80;;;;;;;-141.28;100.00;46218.72;5077085;28;20195;-73
2022/08/16 08:10:40;;;;;;;19.23;10.43;;;;;;;-141.28;100.00;46203.03;5090958;28;20257;-74
2022/08/16 08:13:07;;;;;;;19.73;11.87;;;;;;;-141.28;100.00;46175.59;5088829;28;20200;-75
2022/08/16 08:15:35;;;;;;;17.23;11.20;;;;;;;-141.28;100.00;46136.38;5091731;28;20200;-75
2022/08/16 08:18:02;;;;;;;16.50;10.57;;;;;;;-141.28;100.00;46128.53;5090689;28;20659;-74
2022/08/16 08:20:30;;;;;;;11.40;10.30;;;;;;;-141.28;100.00;46120.69;5078559;28;20663;-75
2022/08/16 08:22:59;;;;;;;13.37;10.43;;;;;;;-141.28;100.00;46101.09;5076534;28;20216;-74
2022/08/16 08:25:26;;;;;;;11.80;9.87;;;;;;;-141.28;100.00;46071.69;5090669;28;20211;-75
2022/08/16 08:27:53;;;;;;;13.77;10.47;;;;;;;-141.28;100.00;46073.66;5082362;28;20199;-76
2022/08/16 08:30:20;;;;;;;15.90;10.00;;;;;;;-141.28;100.00;46040.34;5091200;28;20214;-75
2022/08/16 08:32:49;;;;;;;15.10;10.33;;;;;;;-141.28;100.00;46018.78;5057921;28;20200;-76
2022/08/16 08:35:16;;;;;;;12.73;10.53;;;;;;;-141.28;100.00;46003.09;5084347;28;20203;-76
2022/08/16 08:37:44;;;;;;;11.60;9.87;;;;;;;-141.28;100.00;45995.25;5091343;28;20214;-74
2022/08/16 08:40:12;;;;;;;12.47;10.10;;;;;;;-141.28;100.00;45995.25;5089951;28;20195;-73
2022/08/16 08:42:42;;;;;;;14.80;9.20;;;;;;;-141.28;100.00;45991.31;5091189;28;20228;-74
2022/08/16 08:45:12;;;;;;;11.93;9.27;;;;;;;-141.28;100.00;45985.44;5090846;28;20253;-75
2022/08/16 08:47:41;;;;;;;13.63;8.70;;;;;;;-141.28;100.00;45971.72;5081518;28;20224;-74
2022/08/16 08:50:11;;;;;;;12.40;8.30;;;;;;;-141.28;100.00;45922.72;5086897;28;20230;-73
2022/08/16 08:52:38;;;;;;;9.00;7.97;;;;;;;-141.28;100.00;45873.72;5094392;28;20222;-75
2022/08/16 08:55:07;;;;;;;8.03;7.07;;;;;;;-141.28;100.00;45846.28;5090906;28;20206;-74
2022/08/16 08:57:36;;;;;;;12.27;7.80;;;;;;;-141.28;100.00;45834.50;5091095;28;20204;-74
2022/08/16 09:00:04;;;;;;;12.33;7.80;;;;;;;-141.28;100.00;45791.38;5090837;28;20248;-73
2022/08/16 09:02:32;;;;;;;13.90;7.97;;;;;;;-141.28;100.00;45763.94;5090587;28;20218;-74
2022/08/16 09:04:59;;;;;;;15.33;8.20;;;;;;;-141.28;100.00;45738.47;5094056;28;20205;-73
2022/08/16 09:07:28;;;;;;;9.03;8.10;;;;;;;-141.28;100.00;45736.50;5068647;28;20195;-74
2022/08/16 09:09:56;;;;;;;17.07;8.17;;;;;;;-141.28;100.00;45709.06;5093870;28;20600;-76
2022/08/16 09:12:23;;;;;;;12.77;8.17;;;;;;;-141.28;100.00;45669.84;5093056;28;20195;-76
2022/08/16 09:14:50;;;;;;;10.03;7.43;;;;;;;-141.28;100.00;45750.22;5080700;28;20200;-76
2022/08/16 09:17:17;;;;;;;10.77;7.80;;;;;;;-141.28;100.00;45889.38;5093803;28;20672;-75
2022/08/16 09:19:44;;;;;;;17.37;7.87;;;;;;;-141.28;100.00;45903.13;5092950;28;20192;-76
2022/08/16 09:22:11;;;;;;;9.53;6.80;;;;;;;-141.28;100.00;50236.00;5093870;28;20202;-75
2022/08/16 09:24:40;;;;;;;6.50;5.87;;;;;;;-141.28;100.00;49980.84;5068191;28;20200;-75
2022/08/16 09:27:07;;;;;;;7.93;5.40;;;;;;;-141.28;100.00;49933.75;5089115;28;20197;-75
2022/08/16 09:29:34;;;;;;;6.13;5.30;;;;;;;-141.28;100.00;50018.16;5073849;28;20197;-74
2022/08/16 09:32:00;;;;;;;6.93;5.53;;;;;;;-141.28;100.00;49870.94;5083204;28;20280;-73
2022/08/16 09:34:28;;;;;;;7.37;5.43;;;;;;;-141.28;100.00;49664.91;5078325;28;21286;-73
2022/08/16 09:36:56;;;;;;;6.40;5.43;;;;;;;-141.28;100.00;49505.94;5082605;28;20194;-75
2022/08/16 09:39:24;;;;;;;6.90;5.83;;;;;;;-141.28;100.00;49411.75;5093443;28;20575;-73
2022/08/16 09:41:55;;;;;;;11.67;6.07;;;;;;;-141.28;100.00;49066.41;5093487;28;20200;-74
2022/08/16 09:44:23;;;;;;;8.00;5.70;;;;;;;-141.28;100.00;48974.19;5080188;28;20278;-74
2022/08/16 09:46:51;;;;;;;6.57;5.80;;;;;;;-141.28;100.00;48846.69;5067601;28;20190;-75
2022/08/16 09:49:19;;;;;;;6.80;6.10;;;;;;;-141.28;100.00;48838.81;5092626;28;20198;-75
2022/08/16 09:51:52;;;;;;;6.93;5.57;;;;;;;-141.28;100.00;48748.56;5080766;28;20210;-75
2022/08/16 09:54:20;;;;;;;8.73;6.53;;;;;;;-141.28;100.00;48776.03;5093629;28;20276;-74
2022/08/16 09:56:47;;;;;;;8.00;5.87;;;;;;;-141.28;100.00;48728.97;5092948;28;20281;-74
2022/08/16 09:59:15;;;;;;;15.73;6.57;;;;;;;-141.28;100.00;48681.88;5092977;28;20200;-74
2022/08/16 10:01:46;;;;;;;7.07;5.83;;;;;;;-141.28;100.00;48658.34;5093708;28;20194;-74
2022/08/16 10:04:14;;;;;;;7.00;5.60;;;;;;;-141.28;100.00;48662.25;5089297;28;20717;-74
2022/08/16 10:06:43;;;;;;;6.83;6.10;;;;;;;-141.28;100.00;49001.66;5073200;28;20198;-76
2022/08/16 10:09:12;;;;;;;10.83;6.43;;;;;;;-141.28;100.00;48642.63;5077102;28;20194;-76
2022/08/16 10:14:29;;;;;;;6.17;5.57;;;;;;;-141.28;100.00;48638.72;5079951;28;20210;-74
2022/08/16 10:16:57;;;;;;;9.90;5.90;;;;;;;-141.28;100.00;48681.88;5083422;28;20301;-76
2022/08/16 10:19:24;;;;;;;7.90;5.40;;;;;;;-141.28;100.00;48670.09;5085903;28;20193;-75
2022/08/16 10:21:52;;;;;;;8.93;6.13;;;;;;;-141.28;100.00;48756.44;5073082;28;20198;-75
2022/08/16 10:24:20;;;;;;;6.30;5.70;;;;;;;-141.28;100.00;48736.81;5072923;28;20267;-76
2022/08/16 10:26:46;;;;;;;6.07;5.13;;;;;;;-141.28;100.00;48660.28;5072968;28;20672;-77
2022/08/16 10:29:14;;;;;;;5.50;5.00;;;;;;;-141.28;100.00;48626.94;5073281;28;20197;-74
2022/08/16 10:31:43;;;;;;;9.67;5.60;;;;;;;-141.28;100.00;48615.19;5086283;28;20245;-76
2022/08/16 10:34:10;;;;;;;8.43;5.50;;;;;;;-141.28;100.00;48623.03;5073339;28;20210;-73
2022/08/16 10:36:37;;;;;;;7.30;5.43;;;;;;;-141.28;100.00;48617.13;5073150;28;20209;-75
2022/08/16 10:39:04;;;;;;;7.40;5.17;;;;;;;-141.28;100.00;48615.19;5073185;28;20572;-75
2022/08/16 10:41:31;;;;;;;5.63;5.00;;;;;;;-141.28;100.00;48619.09;5075734;28;20289;-76
2022/08/16 10:44:01;;;;;;;5.80;5.30;;;;;;;-141.28;100.00;48646.56;5083773;28;20231;-75
2022/08/16 10:46:29;;;;;;;9.27;5.50;;;;;;;-141.28;100.00;48575.94;5073193;28;20209;-76
2022/08/16 10:49:01;;;;;;;6.27;5.37;;;;;;;-141.28;100.00;48619.09;5073172;28;20235;-76
2022/08/16 10:51:31;;;;;;;11.50;5.50;;;;;;;-141.28;100.00;48646.56;5074962;28;20222;-74
2022/08/16 10:53:58;;;;;;;10.23;5.63;;;;;;;-141.28;100.00;48670.09;5073979;28;20653;-74
2022/08/16 10:56:25;;;;;;;8.33;6.10;;;;;;;-141.28;100.00;48621.06;5072207;28;20206;-73
2022/08/16 10:58:56;;;;;;;9.47;5.80;;;;;;;-141.28;100.00;48697.56;5072243;28;20204;-74
2022/08/16 11:01:25;;;;;;;14.87;5.90;;;;;;;-141.28;100.00;48697.56;5073309;28;20201;-74
2022/08/16 11:03:53;;;;;;;12.03;5.70;;;;;;;-141.28;100.00;48709.34;5089066;28;20602;-75
2022/08/16 11:06:22;;;;;;;18.17;6.43;;;;;;;-141.28;100.00;48748.56;5092057;28;20223;-75